Accueil
METAR-TAF:

METAR-TAF

Aéroports :

Aéroport Adolfo-Suárez de Madrid-Barajas

Madrid, Espagne

latitude: 40-27N, longitude: 003-33W, altitude: 609 m

Observation

Le bulletin a été fait il y a 35 minutes, à 19:00 UTC
Vent 7 kt de ouest/nord-ouest, variant entre ouest et nord/nord-ouest
Température 20°C
Humidité 56%
Pression 1018 hPa
Visibilité 10 km ou plus
Quelques nuages à une hauteur de 5000 ft

METAR: LEMD 201900Z 30007KT 270V330 9999 FEW050 20/11 Q1018 NOSIG

Heure: 21:35 (19:35 UTC)

Prévision

Le bulletin a été fait il y a 2 heures et 35 minutes, à 17:00 UTC
Prévision valable du 20 à 18 UTC au 21 à 24 UTC
Vent 6 kt de ouest
Visibilité 10 km ou plus
Nuages épars à une hauteur de 3000 ft
Probabilité 30% :
Temporairement
du 20 à 18 UTC au 20 à 23 UTC
Vent 10 kt de ouest

TAF: LEMD 201700Z 2018/2124 27006KT 9999 SCT030 TX28/2115Z TN11/2105Z PROB30 TEMPO 2018/2023 27010KT

Observations et prévisions météorologiques de plus de 4000 aéroports (messages METAR et TAF).

Les stations disponibles sont représentées par des disques jaunes et rouges sur la carte.

Passer la souris dessus pour voir le nom de la station.

Cliquer dessus pour voir les observations et prévisions météorologiques.

Pour changer de carte: cliquez sur les boutons verts avec une croix noire pour zoomer, sur le bouton vert avec un tiret pour effectuer un zoom arrière, ou sur les flèches vertes pour les cartes adjacentes.


METAR-TAF: